sensor_id;sensor_type;location;lat;lon;timestamp;pressure;altitude;pressure_sealevel;temperature;humidity
57600;BME280;43426;43.594;24.334;2023-04-02T00:02:30;100024.88;;;7.90;95.72
57600;BME280;43426;43.594;24.334;2023-04-02T00:07:46;100029.78;;;7.78;96.55
57600;BME280;43426;43.594;24.334;2023-04-02T00:10:35;100035.47;;;7.75;96.61
57600;BME280;43426;43.594;24.334;2023-04-02T00:15:28;100026.44;;;7.68;96.31
57600;BME280;43426;43.594;24.334;2023-04-02T00:17:53;100039.38;;;7.73;96.50
57600;BME280;43426;43.594;24.334;2023-04-02T00:20:19;100003.44;;;7.57;96.05
57600;BME280;43426;43.594;24.334;2023-04-02T00:22:47;100029.94;;;7.85;95.17
57600;BME280;43426;43.594;24.334;2023-04-02T00:25:14;100034.28;;;7.86;95.58
57600;BME280;43426;43.594;24.334;2023-04-02T00:27:42;100043.31;;;8.01;95.32
57600;BME280;43426;43.594;24.334;2023-04-02T00:30:11;100031.22;;;7.97;95.02
57600;BME280;43426;43.594;24.334;2023-04-02T00:32:37;100036.28;;;8.00;94.96
57600;BME280;43426;43.594;24.334;2023-04-02T00:35:09;100034.41;;;8.09;94.23
57600;BME280;43426;43.594;24.334;2023-04-02T00:37:36;100025.34;;;8.10;94.06
57600;BME280;43426;43.594;24.334;2023-04-02T00:40:25;100042.09;;;8.21;93.96
57600;BME280;43426;43.594;24.334;2023-04-02T00:42:52;100041.06;;;8.30;93.21
57600;BME280;43426;43.594;24.334;2023-04-02T00:45:31;100046.22;;;8.40;92.67
57600;BME280;43426;43.594;24.334;2023-04-02T00:48:35;100034.16;;;8.35;92.80
57600;BME280;43426;43.594;24.334;2023-04-02T00:51:18;100033.19;;;8.28;93.09
57600;BME280;43426;43.594;24.334;2023-04-02T00:53:45;100052.59;;;8.47;92.68
57600;BME280;43426;43.594;24.334;2023-04-02T00:56:16;100049.56;;;8.50;92.32
57600;BME280;43426;43.594;24.334;2023-04-02T00:58:44;100050.25;;;8.52;92.47
57600;BME280;43426;43.594;24.334;2023-04-02T01:01:17;100048.19;;;8.54;92.50
57600;BME280;43426;43.594;24.334;2023-04-02T01:03:52;100048.56;;;8.51;91.77
57600;BME280;43426;43.594;24.334;2023-04-02T01:06:18;100041.50;;;8.50;91.81
57600;BME280;43426;43.594;24.334;2023-04-02T01:23:02;100062.13;;;8.66;90.92
57600;BME280;43426;43.594;24.334;2023-04-02T01:26:03;100051.00;;;8.69;91.13
57600;BME280;43426;43.594;24.334;2023-04-02T01:28:42;100053.38;;;8.64;91.07
57600;BME280;43426;43.594;24.334;2023-04-02T01:31:10;100011.78;;;8.43;91.49
57600;BME280;43426;43.594;24.334;2023-04-02T01:33:36;100064.75;;;8.74;92.18
57600;BME280;43426;43.594;24.334;2023-04-02T01:36:17;100061.63;;;8.62;92.98
57600;BME280;43426;43.594;24.334;2023-04-02T01:38:56;100054.38;;;8.71;92.30
57600;BME280;43426;43.594;24.334;2023-04-02T01:41:35;100032.25;;;8.44;92.83
57600;BME280;43426;43.594;24.334;2023-04-02T01:44:07;100035.47;;;8.48;92.74
57600;BME280;43426;43.594;24.334;2023-04-02T01:46:35;100057.09;;;8.63;92.10
57600;BME280;43426;43.594;24.334;2023-04-02T01:49:11;100053.38;;;8.64;92.05
57600;BME280;43426;43.594;24.334;2023-04-02T01:51:41;100034.28;;;8.50;92.20
57600;BME280;43426;43.594;24.334;2023-04-02T01:54:07;100060.06;;;8.68;92.29
57600;BME280;43426;43.594;24.334;2023-04-02T01:56:33;100039.81;;;8.57;92.06
57600;BME280;43426;43.594;24.334;2023-04-02T01:58:59;100061.94;;;8.67;92.45
57600;BME280;43426;43.594;24.334;2023-04-02T02:01:32;100043.88;;;8.53;91.86
57600;BME280;43426;43.594;24.334;2023-04-02T02:04:00;100060.75;;;8.70;91.69
57600;BME280;43426;43.594;24.334;2023-04-02T02:06:26;100041.13;;;8.61;91.45
57600;BME280;43426;43.594;24.334;2023-04-02T02:09:03;100072.50;;;8.69;91.80
57600;BME280;43426;43.594;24.334;2023-04-02T02:11:31;100047.34;;;8.62;91.64
57600;BME280;43426;43.594;24.334;2023-04-02T02:14:04;100069.09;;;8.83;89.96
57600;BME280;43426;43.594;24.334;2023-04-02T02:16:37;100074.94;;;8.87;89.57
57600;BME280;43426;43.594;24.334;2023-04-02T02:21:44;100070.53;;;8.94;88.56
57600;BME280;43426;43.594;24.334;2023-04-02T02:24:27;100075.84;;;9.02;87.86
57600;BME280;43426;43.594;24.334;2023-04-02T02:29:34;100049.38;;;8.91;87.68
57600;BME280;43426;43.594;24.334;2023-04-02T02:32:01;100078.09;;;8.99;88.16
57600;BME280;43426;43.594;24.334;2023-04-02T02:34:37;100065.69;;;8.90;88.54
57600;BME280;43426;43.594;24.334;2023-04-02T02:37:07;100078.28;;;8.97;88.53
57600;BME280;43426;43.594;24.334;2023-04-02T02:39:41;100081.47;;;8.93;89.19
57600;BME280;43426;43.594;24.334;2023-04-02T02:42:13;100066.75;;;8.80;90.34
57600;BME280;43426;43.594;24.334;2023-04-02T02:44:43;100088.84;;;8.99;90.33
57600;BME280;43426;43.594;24.334;2023-04-02T02:47:17;100076.13;;;8.84;90.47
57600;BME280;43426;43.594;24.334;2023-04-02T02:49:51;100083.56;;;8.82;90.16
57600;BME280;43426;43.594;24.334;2023-04-02T02:52:35;100091.38;;;9.00;89.55
57600;BME280;43426;43.594;24.334;2023-04-02T02:55:06;100086.03;;;8.92;89.80
57600;BME280;43426;43.594;24.334;2023-04-02T02:57:41;100062.41;;;8.79;88.95
57600;BME280;43426;43.594;24.334;2023-04-02T03:00:10;100064.91;;;8.81;88.65
57600;BME280;43426;43.594;24.334;2023-04-02T03:02:38;100066.91;;;8.79;89.05
57600;BME280;43426;43.594;24.334;2023-04-02T03:05:06;100087.88;;;8.92;89.63
57600;BME280;43426;43.594;24.334;2023-04-02T03:07:33;100090.03;;;8.96;88.21
57600;BME280;43426;43.594;24.334;2023-04-02T03:12:43;100090.53;;;9.00;88.43
57600;BME280;43426;43.594;24.334;2023-04-02T03:15:17;100090.16;;;9.03;88.26
57600;BME280;43426;43.594;24.334;2023-04-02T03:28:12;100072.53;;;9.00;86.38
57600;BME280;43426;43.594;24.334;2023-04-02T03:33:16;100092.00;;;9.02;87.52
57600;BME280;43426;43.594;24.334;2023-04-02T03:35:53;100098.94;;;8.97;87.06
57600;BME280;43426;43.594;24.334;2023-04-02T03:38:27;100074.16;;;8.78;87.82
57600;BME280;43426;43.594;24.334;2023-04-02T03:41:16;100079.84;;;8.83;87.57
57600;BME280;43426;43.594;24.334;2023-04-02T03:43:46;100068.31;;;8.66;87.58
57600;BME280;43426;43.594;24.334;2023-04-02T03:46:23;100095.50;;;8.80;87.70
57600;BME280;43426;43.594;24.334;2023-04-02T03:48:53;100092.94;;;8.86;86.79
57600;BME280;43426;43.594;24.334;2023-04-02T03:51:25;100095.19;;;8.75;87.23
57600;BME280;43426;43.594;24.334;2023-04-02T03:53:52;100093.19;;;8.68;87.05
57600;BME280;43426;43.594;24.334;2023-04-02T03:56:27;100094.03;;;8.69;87.13
57600;BME280;43426;43.594;24.334;2023-04-02T04:04:39;100096.59;;;8.54;88.17
57600;BME280;43426;43.594;24.334;2023-04-02T04:07:13;100085.72;;;8.47;87.99
57600;BME280;43426;43.594;24.334;2023-04-02T04:09:44;100108.69;;;8.58;88.27
57600;BME280;43426;43.594;24.334;2023-04-02T04:14:55;100103.84;;;8.54;89.35
57600;BME280;43426;43.594;24.334;2023-04-02T04:17:31;100088.56;;;8.46;89.11
57600;BME280;43426;43.594;24.334;2023-04-02T04:22:32;100127.16;;;8.69;88.11
57600;BME280;43426;43.594;24.334;2023-04-02T04:25:00;100103.31;;;8.58;87.99
57600;BME280;43426;43.594;24.334;2023-04-02T04:30:23;100133.31;;;8.86;87.26
57600;BME280;43426;43.594;24.334;2023-04-02T04:33:03;100107.97;;;8.73;87.14
57600;BME280;43426;43.594;24.334;2023-04-02T04:38:09;100116.31;;;8.86;85.76
57600;BME280;43426;43.594;24.334;2023-04-02T04:40:47;100130.03;;;8.99;86.61
57600;BME280;43426;43.594;24.334;2023-04-02T04:46:12;100096.00;;;8.83;85.74
57600;BME280;43426;43.594;24.334;2023-04-02T04:54:19;100143.00;;;9.27;84.90
57600;BME280;43426;43.594;24.334;2023-04-02T04:56:50;100129.31;;;9.14;84.76
57600;BME280;43426;43.594;24.334;2023-04-02T04:59:26;100142.19;;;9.27;85.40
57600;BME280;43426;43.594;24.334;2023-04-02T05:04:35;100165.72;;;9.25;85.61
57600;BME280;43426;43.594;24.334;2023-04-02T05:12:56;100168.69;;;9.38;86.19
57600;BME280;43426;43.594;24.334;2023-04-02T05:15:31;100178.28;;;9.41;85.23
57600;BME280;43426;43.594;24.334;2023-04-02T05:20:39;100186.78;;;9.52;84.80
57600;BME280;43426;43.594;24.334;2023-04-02T05:23:27;100175.31;;;9.59;83.88
57600;BME280;43426;43.594;24.334;2023-04-02T05:28:56;100194.09;;;9.67;83.64
57600;BME280;43426;43.594;24.334;2023-04-02T05:31:27;100193.63;;;9.86;81.18
57600;BME280;43426;43.594;24.334;2023-04-02T05:33:55;100187.72;;;9.68;83.76
57600;BME280;43426;43.594;24.334;2023-04-02T05:36:23;100177.13;;;9.66;82.58
57600;BME280;43426;43.594;24.334;2023-04-02T05:38:51;100199.63;;;9.74;83.75
57600;BME280;43426;43.594;24.334;2023-04-02T05:46:30;100216.69;;;9.89;82.11
57600;BME280;43426;43.594;24.334;2023-04-02T05:48:58;100222.78;;;10.06;81.26
57600;BME280;43426;43.594;24.334;2023-04-02T05:51:37;100209.84;;;10.01;82.17
57600;BME280;43426;43.594;24.334;2023-04-02T05:54:16;100224.28;;;10.09;81.42
57600;BME280;43426;43.594;24.334;2023-04-02T05:56:47;100225.34;;;10.46;80.49
57600;BME280;43426;43.594;24.334;2023-04-02T05:59:24;100225.00;;;11.08;76.05
57600;BME280;43426;43.594;24.334;2023-04-02T06:01:55;100213.06;;;11.33;75.24
57600;BME280;43426;43.594;24.334;2023-04-02T06:07:40;100241.56;;;11.35;73.85
57600;BME280;43426;43.594;24.334;2023-04-02T06:10:27;100238.75;;;11.80;74.62
57600;BME280;43426;43.594;24.334;2023-04-02T06:12:56;100221.16;;;12.56;71.54
57600;BME280;43426;43.594;24.334;2023-04-02T06:15:29;100234.00;;;13.10;69.93
57600;BME280;43426;43.594;24.334;2023-04-02T06:20:27;100232.38;;;13.23;67.72
57600;BME280;43426;43.594;24.334;2023-04-02T06:23:04;100237.72;;;13.44;68.41
57600;BME280;43426;43.594;24.334;2023-04-02T06:28:32;100232.75;;;13.55;66.77
57600;BME280;43426;43.594;24.334;2023-04-02T06:31:03;100246.56;;;13.73;67.13
57600;BME280;43426;43.594;24.334;2023-04-02T06:33:30;100253.97;;;14.20;68.63
57600;BME280;43426;43.594;24.334;2023-04-02T06:35:55;100251.47;;;14.58;64.65
57600;BME280;43426;43.594;24.334;2023-04-02T06:38:25;100240.84;;;14.50;62.91
57600;BME280;43426;43.594;24.334;2023-04-02T06:40:55;100254.84;;;14.87;64.43
57600;BME280;43426;43.594;24.334;2023-04-02T06:43:34;100260.16;;;15.34;63.50
57600;BME280;43426;43.594;24.334;2023-04-02T06:46:14;100267.56;;;15.59;60.28
57600;BME280;43426;43.594;24.334;2023-04-02T06:48:42;100259.16;;;15.15;58.71
57600;BME280;43426;43.594;24.334;2023-04-02T06:51:13;100238.09;;;14.97;60.70
57600;BME280;43426;43.594;24.334;2023-04-02T06:53:46;100253.16;;;14.79;59.73
57600;BME280;43426;43.594;24.334;2023-04-02T06:56:44;100272.38;;;14.71;60.29
57600;BME280;43426;43.594;24.334;2023-04-02T06:59:10;100257.34;;;14.75;63.42
57600;BME280;43426;43.594;24.334;2023-04-02T07:01:57;100260.06;;;14.69;60.21
57600;BME280;43426;43.594;24.334;2023-04-02T07:04:25;100263.59;;;14.76;61.05
57600;BME280;43426;43.594;24.334;2023-04-02T07:06:51;100263.38;;;14.97;60.40
57600;BME280;43426;43.594;24.334;2023-04-02T07:09:17;100247.28;;;14.82;60.98
57600;BME280;43426;43.594;24.334;2023-04-02T07:11:43;100267.75;;;15.12;62.00
57600;BME280;43426;43.594;24.334;2023-04-02T07:14:12;100273.78;;;15.21;59.17
57600;BME280;43426;43.594;24.334;2023-04-02T07:16:38;100256.22;;;15.17;60.31
57600;BME280;43426;43.594;24.334;2023-04-02T07:19:04;100272.72;;;15.22;60.00
57600;BME280;43426;43.594;24.334;2023-04-02T07:21:29;100283.16;;;15.25;59.40
57600;BME280;43426;43.594;24.334;2023-04-02T07:23:56;100283.56;;;15.28;58.81
57600;BME280;43426;43.594;24.334;2023-04-02T07:26:22;100284.44;;;15.15;58.52
57600;BME280;43426;43.594;24.334;2023-04-02T07:28:50;100279.00;;;15.15;60.20
57600;BME280;43426;43.594;24.334;2023-04-02T07:31:21;100275.63;;;15.27;60.18
57600;BME280;43426;43.594;24.334;2023-04-02T07:33:49;100287.94;;;15.36;59.95
57600;BME280;43426;43.594;24.334;2023-04-02T07:36:18;100291.53;;;15.30;60.51
57600;BME280;43426;43.594;24.334;2023-04-02T07:38:43;100280.13;;;15.60;61.10
57600;BME280;43426;43.594;24.334;2023-04-02T07:41:09;100290.09;;;15.79;58.39
57600;BME280;43426;43.594;24.334;2023-04-02T07:43:35;100270.03;;;15.67;60.80
57600;BME280;43426;43.594;24.334;2023-04-02T07:46:01;100297.06;;;16.07;57.06
57600;BME280;43426;43.594;24.334;2023-04-02T07:48:27;100301.88;;;16.12;56.91
57600;BME280;43426;43.594;24.334;2023-04-02T07:50:52;100290.50;;;16.22;57.51
57600;BME280;43426;43.594;24.334;2023-04-02T07:55:52;100279.41;;;16.48;56.53
57600;BME280;43426;43.594;24.334;2023-04-02T07:58:17;100282.75;;;16.50;55.42
57600;BME280;43426;43.594;24.334;2023-04-02T08:00:43;100290.47;;;16.54;54.29
57600;BME280;43426;43.594;24.334;2023-04-02T08:03:09;100289.84;;;16.51;55.04
57600;BME280;43426;43.594;24.334;2023-04-02T08:05:36;100282.66;;;16.32;56.47
57600;BME280;43426;43.594;24.334;2023-04-02T08:08:01;100279.59;;;16.54;55.79
57600;BME280;43426;43.594;24.334;2023-04-02T08:10:26;100259.78;;;16.65;53.96
57600;BME280;43426;43.594;24.334;2023-04-02T08:12:52;100279.75;;;16.84;55.11
57600;BME280;43426;43.594;24.334;2023-04-02T08:15:17;100270.69;;;16.90;54.14
57600;BME280;43426;43.594;24.334;2023-04-02T08:17:42;100268.63;;;16.85;54.96
57600;BME280;43426;43.594;24.334;2023-04-02T08:20:17;100236.03;;;16.72;54.76
57600;BME280;43426;43.594;24.334;2023-04-02T08:22:44;100263.50;;;16.96;52.83
57600;BME280;43426;43.594;24.334;2023-04-02T08:25:10;100261.03;;;17.13;56.10
57600;BME280;43426;43.594;24.334;2023-04-02T08:27:35;100259.34;;;17.30;53.76
57600;BME280;43426;43.594;24.334;2023-04-02T08:30:05;100232.16;;;17.42;53.19
57600;BME280;43426;43.594;24.334;2023-04-02T08:32:30;100247.69;;;17.60;51.20
57600;BME280;43426;43.594;24.334;2023-04-02T08:34:56;100255.94;;;17.53;52.59
57600;BME280;43426;43.594;24.334;2023-04-02T08:37:21;100242.47;;;17.40;52.04
57600;BME280;43426;43.594;24.334;2023-04-02T08:39:46;100256.13;;;17.70;51.39
57600;BME280;43426;43.594;24.334;2023-04-02T08:45:29;100258.56;;;18.09;51.08
57600;BME280;43426;43.594;24.334;2023-04-02T08:47:41;100265.88;;;17.97;50.42
57600;BME280;43426;43.594;24.334;2023-04-02T08:52:36;100258.81;;;18.08;51.25
57600;BME280;43426;43.594;24.334;2023-04-02T08:55:04;100258.84;;;18.19;51.56
57600;BME280;43426;43.594;24.334;2023-04-02T08:57:47;100264.84;;;18.40;47.45
57600;BME280;43426;43.594;24.334;2023-04-02T09:00:26;100264.69;;;18.47;49.17
57600;BME280;43426;43.594;24.334;2023-04-02T09:02:57;100269.84;;;18.67;49.74
57600;BME280;43426;43.594;24.334;2023-04-02T09:05:30;100274.84;;;18.58;47.40
57600;BME280;43426;43.594;24.334;2023-04-02T09:07:58;100275.84;;;18.87;50.72
57600;BME280;43426;43.594;24.334;2023-04-02T09:10:46;100271.03;;;18.83;45.58
57600;BME280;43426;43.594;24.334;2023-04-02T09:13:19;100253.19;;;18.57;46.42
57600;BME280;43426;43.594;24.334;2023-04-02T09:15:47;100285.53;;;18.83;47.86
57600;BME280;43426;43.594;24.334;2023-04-02T09:18:16;100257.38;;;18.71;44.58
57600;BME280;43426;43.594;24.334;2023-04-02T09:20:42;100271.19;;;18.88;46.44
57600;BME280;43426;43.594;24.334;2023-04-02T09:23:20;100263.44;;;19.09;47.49
57600;BME280;43426;43.594;24.334;2023-04-02T09:25:49;100261.28;;;19.22;44.53
57600;BME280;43426;43.594;24.334;2023-04-02T09:28:16;100272.94;;;19.30;44.74
57600;BME280;43426;43.594;24.334;2023-04-02T09:30:59;100265.81;;;19.29;43.85
57600;BME280;43426;43.594;24.334;2023-04-02T09:33:45;100270.44;;;19.40;46.40
57600;BME280;43426;43.594;24.334;2023-04-02T09:41:32;100266.06;;;18.68;44.89
57600;BME280;43426;43.594;24.334;2023-04-02T09:44:21;100283.16;;;18.75;47.53
57600;BME280;43426;43.594;24.334;2023-04-02T09:46:58;100278.53;;;18.99;45.02
57600;BME280;43426;43.594;24.334;2023-04-02T09:49:30;100285.66;;;19.36;42.50
57600;BME280;43426;43.594;24.334;2023-04-02T09:54:36;100248.72;;;19.50;41.26
57600;BME280;43426;43.594;24.334;2023-04-02T09:57:17;100278.28;;;19.36;42.60
57600;BME280;43426;43.594;24.334;2023-04-02T09:59:45;100278.53;;;19.23;42.67
57600;BME280;43426;43.594;24.334;2023-04-02T10:02:27;100292.31;;;18.81;42.56
57600;BME280;43426;43.594;24.334;2023-04-02T10:04:54;100282.47;;;18.14;44.60
57600;BME280;43426;43.594;24.334;2023-04-02T10:07:36;100286.03;;;17.65;44.30
57600;BME280;43426;43.594;24.334;2023-04-02T10:10:21;100277.50;;;17.92;44.92
57600;BME280;43426;43.594;24.334;2023-04-02T10:13:02;100268.22;;;18.89;43.11
57600;BME280;43426;43.594;24.334;2023-04-02T10:15:43;100279.22;;;18.83;42.03
57600;BME280;43426;43.594;24.334;2023-04-02T10:20:46;100273.00;;;17.98;45.43
57600;BME280;43426;43.594;24.334;2023-04-02T10:23:16;100262.81;;;18.05;46.26
57600;BME280;43426;43.594;24.334;2023-04-02T10:25:56;100272.13;;;18.16;43.59
57600;BME280;43426;43.594;24.334;2023-04-02T10:28:43;100271.28;;;18.69;42.37
57600;BME280;43426;43.594;24.334;2023-04-02T10:31:17;100269.88;;;18.91;42.65
57600;BME280;43426;43.594;24.334;2023-04-02T10:33:58;100260.69;;;18.85;43.10
57600;BME280;43426;43.594;24.334;2023-04-02T10:36:55;100277.03;;;18.92;42.59
57600;BME280;43426;43.594;24.334;2023-04-02T10:44:41;100281.88;;;19.66;42.15
57600;BME280;43426;43.594;24.334;2023-04-02T10:47:44;100293.16;;;19.05;41.86
57600;BME280;43426;43.594;24.334;2023-04-02T10:55:42;100271.50;;;19.27;41.68
57600;BME280;43426;43.594;24.334;2023-04-02T10:58:19;100281.84;;;19.78;43.68
57600;BME280;43426;43.594;24.334;2023-04-02T11:00:47;100274.38;;;20.02;39.30
57600;BME280;43426;43.594;24.334;2023-04-02T11:03:20;100273.69;;;20.06;40.97
57600;BME280;43426;43.594;24.334;2023-04-02T11:05:51;100275.13;;;19.97;40.55
57600;BME280;43426;43.594;24.334;2023-04-02T11:08:29;100281.56;;;19.50;38.72
57600;BME280;43426;43.594;24.334;2023-04-02T11:11:04;100271.78;;;19.02;41.07
57600;BME280;43426;43.594;24.334;2023-04-02T11:13:36;100267.56;;;19.35;41.30
57600;BME280;43426;43.594;24.334;2023-04-02T11:16:10;100274.97;;;19.75;39.81
57600;BME280;43426;43.594;24.334;2023-04-02T11:18:39;100267.41;;;19.94;41.39
57600;BME280;43426;43.594;24.334;2023-04-02T11:21:15;100257.31;;;20.12;39.31
57600;BME280;43426;43.594;24.334;2023-04-02T11:23:57;100266.66;;;20.28;40.32
57600;BME280;43426;43.594;24.334;2023-04-02T11:26:42;100277.13;;;20.65;40.56
57600;BME280;43426;43.594;24.334;2023-04-02T11:29:28;100273.13;;;20.55;40.69
57600;BME280;43426;43.594;24.334;2023-04-02T11:50:34;100242.19;;;19.51;40.27
57600;BME280;43426;43.594;24.334;2023-04-02T11:55:35;100254.72;;;19.76;39.04
57600;BME280;43426;43.594;24.334;2023-04-02T12:11:30;100251.31;;;19.98;41.41
57600;BME280;43426;43.594;24.334;2023-04-02T12:13:57;100251.31;;;20.44;39.87
57600;BME280;43426;43.594;24.334;2023-04-02T12:16:23;100229.59;;;20.42;38.18
57600;BME280;43426;43.594;24.334;2023-04-02T12:18:55;100250.97;;;20.23;39.96
